Time;durP1;ratioP1;P1;durP2;ratioP2;P2;SDS_P1;SDS_P2;PMS_P1;PMS_P2;Temp;Humidity;BMP_temperature;BMP_pressure;BME280_temperature;BME280_humidity;BME280_pressure;Samples;Min_cycle;Max_cycle;Signal;HPM_P1;HPM_P2
2022/12/23 00:00:17;;;;;;;23.45;22.55;;;7.40;99.90;;;;;;5018363;28;20083;-75
2022/12/23 00:02:43;;;;;;;25.02;24.02;;;7.40;99.90;;;;;;5018137;28;20489;-75
2022/12/23 00:05:09;;;;;;;24.17;23.27;;;7.40;99.90;;;;;;5018117;28;20491;-75
2022/12/23 00:07:34;;;;;;;22.92;22.05;;;7.40;99.90;;;;;;5031325;28;20587;-75
2022/12/23 00:10:00;;;;;;;21.88;21.02;;;7.40;99.90;;;;;;5026501;28;20087;-73
2022/12/23 00:15:10;;;;;;;27.23;26.08;;;7.40;99.90;;;;;;5038281;28;20040;-74
2022/12/23 00:17:41;;;;;;;23.92;23.02;;;7.40;99.90;;;;;;5036340;28;20040;-74
2022/12/23 00:20:09;;;;;;;23.85;22.95;;;7.40;99.90;;;;;;5025397;28;20115;-74
2022/12/23 00:25:19;;;;;;;23.95;23.05;;;7.30;99.90;;;;;;5023727;28;20033;-74
2022/12/23 00:28:00;;;;;;;23.92;23.00;;;7.30;99.90;;;;;;5017883;28;20018;-74
2022/12/23 00:30:26;;;;;;;22.90;22.10;;;7.30;99.90;;;;;;5020993;28;20025;-74
2022/12/23 00:32:51;;;;;;;20.88;20.02;;;7.30;99.90;;;;;;5029835;28;20024;-73
2022/12/23 00:35:17;;;;;;;22.90;22.10;;;7.40;99.90;;;;;;5033501;28;20026;-74
2022/12/23 00:37:42;;;;;;;24.52;23.63;;;7.30;99.90;;;;;;5027153;28;20033;-74
2022/12/23 00:42:56;;;;;;;24.33;23.42;;;7.30;99.90;;;;;;5024192;28;20096;-74
2022/12/23 00:45:22;;;;;;;22.90;22.10;;;7.30;99.90;;;;;;5017905;28;20058;-74
2022/12/23 00:50:34;;;;;;;21.55;20.75;;;7.40;99.90;;;;;;5037619;28;20043;-74
2022/12/23 00:53:00;;;;;;;22.98;22.15;;;7.40;99.90;;;;;;5037359;28;20093;-73
2022/12/23 00:55:26;;;;;;;23.48;22.58;;;7.40;99.90;;;;;;5027898;28;20495;-74
2022/12/23 00:57:51;;;;;;;22.85;22.05;;;7.40;99.90;;;;;;5030771;28;20115;-74
2022/12/23 01:00:18;;;;;;;23.50;22.60;;;7.40;99.90;;;;;;5016353;28;20479;-73
2022/12/23 01:05:37;;;;;;;22.42;21.63;;;7.40;99.90;;;;;;5015937;28;20028;-74
2022/12/23 01:08:10;;;;;;;23.27;22.38;;;7.20;99.90;;;;;;5022968;28;20032;-73
2022/12/23 01:10:38;;;;;;;20.65;19.85;;;7.40;99.90;;;;;;5035499;28;20033;-73
2022/12/23 01:13:04;;;;;;;24.30;22.90;;;7.40;99.90;;;;;;5016954;28;20029;-73
2022/12/23 01:15:30;;;;;;;21.65;20.85;;;7.40;99.90;;;;;;5030254;28;20029;-73
2022/12/23 01:17:56;;;;;;;23.48;22.58;;;7.40;99.90;;;;;;5017153;28;20030;-73
2022/12/23 01:20:23;;;;;;;22.73;21.92;;;7.30;99.90;;;;;;5029196;28;20039;-73
2022/12/23 01:22:49;;;;;;;20.55;19.75;;;7.30;99.90;;;;;;5023032;28;20025;-72
2022/12/23 01:25:15;;;;;;;22.38;21.58;;;7.40;99.90;;;;;;5032838;28;20032;-72
2022/12/23 01:27:40;;;;;;;19.88;19.15;;;7.40;99.90;;;;;;5027483;28;20461;-73
2022/12/23 01:30:06;;;;;;;22.63;21.83;;;7.40;99.90;;;;;;5027156;28;20021;-72
2022/12/23 01:32:32;;;;;;;21.60;20.80;;;7.40;99.90;;;;;;5036918;28;20021;-72
2022/12/23 01:34:57;;;;;;;22.83;22.00;;;7.40;99.90;;;;;;5021080;28;20026;-73
2022/12/23 01:37:23;;;;;;;21.25;20.45;;;7.40;99.90;;;;;;5037789;28;20494;-73
2022/12/23 01:39:48;;;;;;;21.65;20.85;;;7.40;99.90;;;;;;5021304;28;20132;-73
2022/12/23 01:45:24;;;;;;;22.65;21.85;;;7.40;99.90;;;;;;5027096;28;20078;-74
2022/12/23 01:47:53;;;;;;;22.42;21.63;;;7.40;99.90;;;;;;5025852;28;20021;-74
2022/12/23 01:50:35;;;;;;;24.80;23.90;;;7.50;99.90;;;;;;5028284;28;20045;-75
2022/12/23 01:53:03;;;;;;;24.05;23.15;;;7.40;99.90;;;;;;5013901;28;20076;-75
2022/12/23 01:55:32;;;;;;;23.10;22.23;;;7.40;99.90;;;;;;5021590;28;20033;-75
2022/12/23 01:58:06;;;;;;;25.92;24.92;;;7.40;99.90;;;;;;5033464;28;20033;-74
2022/12/23 02:09:15;;;;;;;23.30;22.40;;;7.40;99.90;;;;;;5020162;28;20547;-74
2022/12/23 02:11:37;;;;;;;24.70;23.80;;;7.40;99.90;;;;;;5019819;28;20087;-74
2022/12/23 02:17:24;;;;;;;24.50;23.60;;;7.40;99.90;;;;;;5020672;28;20084;-74
2022/12/23 02:20:15;;;;;;;25.73;24.73;;;7.40;99.90;;;;;;5021868;28;20021;-74
2022/12/23 02:23:31;;;;;;;25.15;24.25;;;7.40;99.90;;;;;;5018191;28;20029;-72
2022/12/23 02:26:24;;;;;;;25.33;24.42;;;7.40;99.90;;;;;;4999870;28;20045;-74
2022/12/23 02:29:25;;;;;;;24.75;23.85;;;7.40;99.90;;;;;;5016845;28;20489;-74
2022/12/23 02:32:35;;;;;;;24.33;23.42;;;7.30;99.90;;;;;;5013610;28;20507;-73
2022/12/23 02:35:23;;;;;;;23.63;22.73;;;7.30;99.90;;;;;;4933111;29;20032;-73
2022/12/23 02:38:22;;;;;;;26.65;25.65;;;7.30;99.90;;;;;;4952238;29;20034;-72
2022/12/23 02:41:04;;;;;;;24.77;23.88;;;7.30;99.90;;;;;;5003459;28;20396;-73
2022/12/23 02:43:59;;;;;;;24.60;23.70;;;7.20;99.90;;;;;;5028740;28;20025;-74
2022/12/23 02:46:56;;;;;;;25.58;24.63;;;7.20;99.90;;;;;;5019227;28;20026;-74
2022/12/23 02:49:29;;;;;;;27.45;26.35;;;7.20;99.90;;;;;;5003799;28;20065;-74
2022/12/23 02:51:56;;;;;;;24.60;23.70;;;7.20;99.90;;;;;;5025730;28;20026;-74
2022/12/23 02:54:29;;;;;;;24.30;23.40;;;7.20;99.90;;;;;;5023599;28;20022;-73
2022/12/23 02:56:59;;;;;;;24.70;23.80;;;7.20;99.90;;;;;;5030870;28;20026;-73
2022/12/23 02:59:29;;;;;;;25.88;24.88;;;7.10;99.90;;;;;;5032349;28;20049;-73
2022/12/23 03:01:55;;;;;;;25.48;24.55;;;7.10;99.90;;;;;;5025293;28;20104;-73
2022/12/23 03:04:20;;;;;;;23.55;22.65;;;7.10;99.90;;;;;;5025446;28;20021;-73
2022/12/23 03:06:53;;;;;;;23.73;22.83;;;7.10;99.90;;;;;;5019553;28;20475;-74
2022/12/23 03:09:45;;;;;;;23.92;23.02;;;7.10;99.90;;;;;;5018959;28;20459;-76
2022/12/23 03:12:32;;;;;;;24.10;23.20;;;7.10;99.90;;;;;;5020436;28;20053;-74
2022/12/23 03:15:12;;;;;;;25.40;24.50;;;7.10;99.90;;;;;;5020218;28;20029;-74
2022/12/23 03:18:06;;;;;;;23.90;23.00;;;7.10;99.90;;;;;;5032069;28;20052;-73
2022/12/23 03:20:35;;;;;;;24.70;23.80;;;7.10;99.90;;;;;;5030718;28;20052;-74
2022/12/23 03:23:09;;;;;;;25.50;24.60;;;7.10;99.90;;;;;;5025035;28;20072;-73
2022/12/23 03:25:45;;;;;;;25.13;24.23;;;7.10;99.90;;;;;;5012127;28;20037;-74
2022/12/23 03:28:18;;;;;;;25.40;24.47;;;7.20;99.90;;;;;;5012269;28;20068;-73
2022/12/23 03:30:49;;;;;;;24.27;23.38;;;7.20;99.90;;;;;;5017058;28;20249;-74
2022/12/23 03:33:21;;;;;;;25.85;24.85;;;7.20;99.90;;;;;;5019575;28;20037;-74
2022/12/23 03:35:54;;;;;;;23.25;22.35;;;7.20;99.90;;;;;;5031404;28;20021;-76
2022/12/23 03:38:21;;;;;;;26.50;25.50;;;7.20;99.90;;;;;;5030254;28;20029;-73
2022/12/23 03:40:52;;;;;;;23.50;22.60;;;7.20;99.90;;;;;;5024443;28;20055;-74
2022/12/23 03:43:32;;;;;;;24.92;24.02;;;7.20;99.90;;;;;;5023692;28;20098;-74
2022/12/23 03:46:02;;;;;;;23.70;22.80;;;7.20;99.90;;;;;;5021881;28;20117;-74
2022/12/23 03:48:44;;;;;;;25.40;24.48;;;7.20;99.90;;;;;;5014514;28;20049;-74
2022/12/23 03:51:18;;;;;;;24.05;23.15;;;7.20;99.90;;;;;;5010697;28;20026;-75
2022/12/23 03:53:50;;;;;;;24.88;23.98;;;7.20;99.90;;;;;;5019020;28;20114;-75
2022/12/23 03:56:39;;;;;;;23.90;23.00;;;7.20;99.90;;;;;;5017083;28;20026;-75
2022/12/23 03:59:18;;;;;;;25.50;24.52;;;7.30;99.90;;;;;;5025137;28;20060;-74
2022/12/23 04:02:01;;;;;;;24.50;23.60;;;7.20;99.90;;;;;;5022876;28;20018;-74
2022/12/23 04:04:35;;;;;;;24.23;23.33;;;7.30;99.90;;;;;;5014126;28;20491;-74
2022/12/23 04:07:15;;;;;;;23.35;22.45;;;7.30;99.90;;;;;;5031188;28;20030;-74
2022/12/23 04:09:42;;;;;;;25.50;24.50;;;7.30;99.90;;;;;;5031508;28;20100;-74
2022/12/23 04:12:08;;;;;;;22.35;21.55;;;7.30;99.90;;;;;;5020305;28;20476;-76
2022/12/23 04:14:34;;;;;;;21.88;21.08;;;7.40;99.90;;;;;;5024844;28;20030;-75
2022/12/23 04:17:00;;;;;;;22.98;22.08;;;7.30;99.90;;;;;;5011498;28;20018;-73
2022/12/23 04:19:26;;;;;;;21.90;21.10;;;7.30;99.90;;;;;;5016244;28;20037;-73
2022/12/23 04:21:54;;;;;;;24.10;23.20;;;7.30;99.90;;;;;;5019847;28;20529;-72
2022/12/23 04:24:20;;;;;;;24.25;23.35;;;7.30;99.90;;;;;;5023753;28;20060;-73
2022/12/23 04:26:45;;;;;;;22.80;22.00;;;7.30;99.90;;;;;;5011540;28;20491;-73
2022/12/23 04:29:11;;;;;;;23.90;23.00;;;7.00;99.90;;;;;;5011311;28;20503;-73
2022/12/23 04:31:37;;;;;;;23.25;22.35;;;7.20;99.90;;;;;;5030377;28;20021;-73
2022/12/23 04:34:02;;;;;;;23.85;22.95;;;7.30;99.90;;;;;;5013703;28;20064;-71
2022/12/23 04:36:28;;;;;;;22.45;21.65;;;7.30;99.90;;;;;;5012049;28;20026;-71
2022/12/23 04:38:53;;;;;;;23.20;22.30;;;7.30;99.90;;;;;;5014953;28;20029;-73
2022/12/23 04:41:19;;;;;;;22.38;21.58;;;7.30;99.90;;;;;;5015065;28;20025;-75
2022/12/23 04:43:44;;;;;;;22.88;22.00;;;7.30;99.90;;;;;;5015187;28;20037;-75
2022/12/23 04:46:10;;;;;;;23.60;22.70;;;7.20;99.90;;;;;;5025160;28;20021;-73
2022/12/23 04:48:35;;;;;;;22.33;21.52;;;7.30;99.90;;;;;;5034330;28;20034;-74
2022/12/23 04:51:02;;;;;;;23.20;22.30;;;7.30;99.90;;;;;;5034661;28;20029;-73
2022/12/23 04:53:27;;;;;;;23.38;22.48;;;7.30;99.90;;;;;;5016260;28;20030;-74
2022/12/23 04:55:53;;;;;;;22.77;21.98;;;7.30;99.90;;;;;;5013496;28;20030;-73
2022/12/23 04:58:20;;;;;;;23.58;22.67;;;7.30;99.90;;;;;;5014304;28;20534;-74
2022/12/23 05:00:46;;;;;;;24.60;23.70;;;7.30;99.90;;;;;;5014796;28;20021;-74
2022/12/23 05:03:12;;;;;;;24.30;23.40;;;7.30;99.90;;;;;;5014599;28;20061;-74
2022/12/23 05:05:42;;;;;;;25.00;24.10;;;7.40;99.90;;;;;;5014536;28;20026;-74
2022/12/23 05:08:08;;;;;;;24.35;23.45;;;7.40;99.90;;;;;;5013194;28;20056;-74
2022/12/23 05:10:33;;;;;;;23.90;23.00;;;7.30;99.90;;;;;;5026243;28;20045;-75
2022/12/23 05:12:59;;;;;;;22.85;22.02;;;7.30;99.90;;;;;;5014847;28;20056;-76
2022/12/23 05:15:25;;;;;;;23.83;22.92;;;7.40;99.90;;;;;;5026093;28;20453;-74
2022/12/23 05:17:50;;;;;;;21.75;20.95;;;7.40;99.90;;;;;;5033913;28;20117;-75
2022/12/23 05:20:16;;;;;;;22.90;22.08;;;7.40;99.90;;;;;;5032870;28;20025;-74
2022/12/23 05:22:41;;;;;;;22.80;22.00;;;7.40;99.90;;;;;;5034000;28;20029;-75
2022/12/23 05:25:08;;;;;;;22.52;21.73;;;7.30;99.90;;;;;;5033354;28;20026;-74
2022/12/23 05:27:35;;;;;;;22.38;21.58;;;7.40;99.90;;;;;;5015201;28;20022;-75
2022/12/23 05:30:01;;;;;;;24.75;23.75;;;7.30;99.90;;;;;;5014328;28;20037;-74
2022/12/23 05:32:26;;;;;;;23.00;22.15;;;7.30;99.90;;;;;;5030505;28;20101;-74
2022/12/23 05:34:52;;;;;;;23.27;22.38;;;7.30;99.90;;;;;;5012884;28;20443;-74
2022/12/23 05:37:17;;;;;;;26.10;25.08;;;7.30;99.90;;;;;;5012392;28;20515;-74
2022/12/23 05:39:43;;;;;;;21.20;20.40;;;7.40;99.90;;;;;;5014127;28;20117;-76
2022/12/23 05:42:08;;;;;;;22.10;21.30;;;7.40;99.90;;;;;;5012775;28;20113;-75
2022/12/23 05:44:34;;;;;;;21.30;20.50;;;7.40;99.90;;;;;;5016967;28;20112;-74
2022/12/23 05:46:59;;;;;;;23.15;22.27;;;7.30;99.90;;;;;;5021871;28;20549;-74
2022/12/23 05:49:25;;;;;;;22.20;21.40;;;7.30;99.90;;;;;;5030751;28;20021;-74
2022/12/23 05:51:51;;;;;;;22.77;21.98;;;7.40;99.90;;;;;;5015289;28;20494;-75
2022/12/23 05:54:16;;;;;;;23.40;22.50;;;7.40;99.90;;;;;;5013653;28;20383;-74
2022/12/23 05:56:42;;;;;;;23.33;22.45;;;7.40;99.90;;;;;;5015047;28;20079;-75
2022/12/23 05:59:07;;;;;;;23.10;22.20;;;7.40;99.90;;;;;;5020208;28;20053;-75
2022/12/23 06:01:33;;;;;;;24.50;23.60;;;7.30;99.90;;;;;;5026917;28;20037;-73
2022/12/23 06:03:58;;;;;;;24.10;23.20;;;7.30;99.90;;;;;;5013787;28;20034;-75
2022/12/23 06:06:24;;;;;;;23.63;22.73;;;7.30;99.90;;;;;;5018211;28;20040;-75
2022/12/23 06:08:50;;;;;;;22.00;21.20;;;7.30;99.90;;;;;;5033041;28;20017;-75
2022/12/23 06:11:15;;;;;;;22.60;21.80;;;7.40;99.90;;;;;;5027206;28;20117;-75
2022/12/23 06:13:41;;;;;;;23.35;22.45;;;7.40;99.90;;;;;;5013300;28;20479;-75
2022/12/23 06:16:06;;;;;;;22.42;21.63;;;7.40;99.90;;;;;;5021870;28;20234;-74
2022/12/23 06:18:32;;;;;;;22.92;22.08;;;7.50;99.90;;;;;;5017797;28;20053;-74
2022/12/23 06:20:57;;;;;;;24.25;23.35;;;7.40;99.90;;;;;;5009862;28;20029;-75
2022/12/23 06:23:23;;;;;;;23.35;22.45;;;7.50;99.90;;;;;;5011346;28;20045;-74
2022/12/23 06:25:48;;;;;;;23.60;22.70;;;7.50;99.90;;;;;;5023321;28;20026;-74
2022/12/23 06:28:14;;;;;;;22.75;21.95;;;7.50;99.90;;;;;;5018636;28;20020;-74
2022/12/23 06:30:39;;;;;;;22.90;22.08;;;7.50;99.90;;;;;;5028647;28;20503;-74
2022/12/23 06:33:05;;;;;;;23.08;22.17;;;7.50;99.90;;;;;;5030811;28;20080;-74
2022/12/23 06:35:30;;;;;;;23.20;22.30;;;7.50;99.90;;;;;;5012814;28;20514;-74
2022/12/23 06:37:56;;;;;;;25.38;24.48;;;7.50;99.90;;;;;;5012654;28;20018;-75
2022/12/23 06:40:22;;;;;;;24.02;23.13;;;7.60;99.90;;;;;;5012720;28;20428;-74
2022/12/23 06:42:47;;;;;;;23.75;22.85;;;7.50;99.90;;;;;;5012500;28;20033;-74
2022/12/23 06:45:13;;;;;;;25.10;24.20;;;7.50;99.90;;;;;;5011257;28;20034;-74
2022/12/23 06:47:38;;;;;;;24.70;23.80;;;7.50;99.90;;;;;;5012463;28;20412;-75
2022/12/23 06:50:05;;;;;;;24.90;24.00;;;7.60;99.90;;;;;;5012599;28;20030;-74
2022/12/23 06:52:30;;;;;;;25.00;24.10;;;7.60;99.90;;;;;;5012581;28;20477;-74
2022/12/23 06:54:56;;;;;;;25.80;24.80;;;7.50;99.90;;;;;;5012534;28;20053;-74
2022/12/23 06:57:21;;;;;;;27.20;26.20;;;7.40;99.90;;;;;;5012240;28;20065;-74
2022/12/23 06:59:47;;;;;;;27.88;26.85;;;7.40;99.90;;;;;;5011602;28;20056;-74
2022/12/23 07:02:12;;;;;;;27.58;26.58;;;7.30;99.90;;;;;;5012391;28;20438;-74
2022/12/23 07:04:38;;;;;;;25.40;24.50;;;7.20;99.90;;;;;;5010896;28;20479;-74
2022/12/23 07:07:03;;;;;;;23.63;22.73;;;7.10;99.90;;;;;;5012181;28;20109;-74
2022/12/23 07:09:29;;;;;;;24.80;23.90;;;7.10;99.90;;;;;;5012215;28;20565;-74
2022/12/23 07:11:54;;;;;;;23.23;22.33;;;7.10;99.90;;;;;;5010899;28;20451;-74
2022/12/23 07:14:20;;;;;;;25.10;24.17;;;7.00;99.90;;;;;;5012117;28;20369;-74
2022/12/23 07:16:45;;;;;;;19.65;18.95;;;7.10;99.90;;;;;;5010909;28;20034;-74
2022/12/23 07:19:11;;;;;;;25.88;24.85;;;7.30;99.90;;;;;;5010764;28;20038;-74
2022/12/23 07:21:37;;;;;;;23.30;22.40;;;7.40;99.90;;;;;;5012085;28;20088;-74
2022/12/23 07:24:04;;;;;;;20.85;20.08;;;7.50;99.90;;;;;;5015303;28;20021;-74
2022/12/23 07:26:29;;;;;;;29.98;28.67;;;7.60;99.90;;;;;;5021576;28;20439;-74
2022/12/23 07:28:55;;;;;;;24.38;23.48;;;7.60;99.90;;;;;;5011800;28;20022;-74
2022/12/23 07:31:20;;;;;;;26.40;25.38;;;7.70;99.90;;;;;;5021083;28;20070;-75
2022/12/23 07:33:46;;;;;;;23.80;22.90;;;7.70;99.90;;;;;;5018631;28;20022;-75
2022/12/23 07:36:12;;;;;;;22.83;21.95;;;7.80;99.90;;;;;;5012009;28;20217;-75
2022/12/23 07:38:38;;;;;;;25.25;24.33;;;7.80;99.90;;;;;;5011639;28;20069;-75
2022/12/23 07:41:03;;;;;;;25.23;24.30;;;7.90;99.90;;;;;;5011939;28;20065;-75
2022/12/23 07:43:29;;;;;;;26.00;25.00;;;7.90;99.90;;;;;;5011574;28;20065;-75
2022/12/23 07:45:54;;;;;;;24.58;23.67;;;7.90;99.90;;;;;;5010495;28;20117;-75
2022/12/23 07:48:20;;;;;;;25.98;24.98;;;7.90;99.90;;;;;;5011572;28;20030;-74
2022/12/23 07:50:45;;;;;;;22.15;21.35;;;7.90;99.90;;;;;;5011686;28;20026;-74
2022/12/23 07:53:11;;;;;;;25.50;24.55;;;7.90;99.90;;;;;;5010503;28;20018;-74
2022/12/23 07:55:36;;;;;;;24.85;23.95;;;7.90;99.90;;;;;;5011621;28;20511;-75
2022/12/23 07:58:02;;;;;;;26.73;25.73;;;7.80;99.90;;;;;;5011297;28;20045;-74
2022/12/23 08:00:28;;;;;;;27.67;26.58;;;7.90;99.90;;;;;;5011606;28;20026;-75
2022/12/23 08:02:53;;;;;;;24.63;23.73;;;8.00;99.90;;;;;;5011503;28;20407;-75
2022/12/23 08:05:19;;;;;;;24.05;23.15;;;8.00;99.90;;;;;;5010373;28;20026;-76
2022/12/23 08:07:44;;;;;;;25.30;24.40;;;8.00;99.90;;;;;;5011341;28;20022;-75
2022/12/23 08:10:10;;;;;;;27.95;26.85;;;8.00;99.90;;;;;;5013103;28;20109;-75
2022/12/23 08:12:36;;;;;;;26.05;25.05;;;8.00;99.90;;;;;;5027365;28;20029;-75
2022/12/23 08:15:01;;;;;;;25.67;24.67;;;8.00;99.90;;;;;;5024465;28;20104;-75
2022/12/23 08:17:29;;;;;;;26.10;25.10;;;8.00;99.90;;;;;;5035182;28;20466;-75
2022/12/23 08:19:54;;;;;;;25.48;24.48;;;8.00;99.90;;;;;;5035295;28;20035;-75
2022/12/23 08:22:20;;;;;;;25.52;24.52;;;8.00;99.90;;;;;;5035218;28;20386;-75
2022/12/23 08:24:45;;;;;;;24.40;23.45;;;8.10;99.90;;;;;;5033111;28;20036;-75
2022/12/23 08:27:11;;;;;;;25.60;24.60;;;8.10;99.90;;;;;;5018980;28;20471;-75
2022/12/23 08:29:39;;;;;;;25.73;24.73;;;8.10;99.90;;;;;;5015272;28;20136;-75
2022/12/23 08:32:05;;;;;;;26.45;25.45;;;8.10;99.90;;;;;;5030853;28;20030;-75
2022/12/23 08:34:31;;;;;;;26.83;25.83;;;8.20;99.90;;;;;;5015214;28;20029;-76
2022/12/23 08:36:57;;;;;;;27.13;26.13;;;8.20;99.90;;;;;;5014950;28;20403;-75
2022/12/23 08:39:22;;;;;;;26.00;25.00;;;8.20;99.90;;;;;;5013952;28;20654;-75
2022/12/23 08:41:48;;;;;;;26.88;25.88;;;8.20;99.90;;;;;;5014992;28;20637;-75
2022/12/23 08:44:14;;;;;;;26.85;25.85;;;8.20;99.90;;;;;;5015091;28;20434;-75
2022/12/23 08:46:40;;;;;;;28.48;27.38;;;8.30;99.90;;;;;;5014823;28;20101;-75
2022/12/23 08:49:07;;;;;;;26.65;25.65;;;8.30;99.90;;;;;;5014779;28;20134;-75
2022/12/23 08:51:33;;;;;;;25.20;24.30;;;8.30;99.90;;;;;;5014795;28;20022;-75
2022/12/23 08:53:59;;;;;;;25.67;24.67;;;8.30;99.90;;;;;;5014813;28;20030;-75
2022/12/23 08:56:30;;;;;;;27.40;26.30;;;8.30;99.90;;;;;;5014728;28;20504;-75
2022/12/23 08:58:56;;;;;;;27.20;26.20;;;8.40;99.90;;;;;;5014636;28;20037;-75
2022/12/23 09:01:28;;;;;;;25.17;24.20;;;8.40;99.90;;;;;;5014872;28;20464;-75
2022/12/23 09:03:53;;;;;;;26.42;25.42;;;8.50;99.90;;;;;;5026257;28;20120;-75
2022/12/23 09:06:22;;;;;;;27.58;26.58;;;8.40;99.90;;;;;;5021031;28;20100;-75
2022/12/23 09:08:48;;;;;;;27.85;26.80;;;8.50;99.90;;;;;;5034023;28;20024;-75
2022/12/23 09:11:17;;;;;;;28.00;26.90;;;8.60;99.90;;;;;;5033143;28;20129;-75
2022/12/23 09:13:43;;;;;;;28.50;27.40;;;8.70;99.90;;;;;;5034168;28;20376;-74
2022/12/23 09:16:10;;;;;;;28.92;27.83;;;8.80;99.90;;;;;;5034446;28;20033;-75
2022/12/23 09:18:36;;;;;;;28.90;27.80;;;8.80;99.90;;;;;;5033979;28;20468;-75
2022/12/23 09:21:07;;;;;;;29.80;28.70;;;8.80;99.90;;;;;;5033530;28;20033;-75
2022/12/23 09:23:33;;;;;;;28.85;27.75;;;8.80;99.90;;;;;;5032662;28;20479;-75
2022/12/23 09:25:59;;;;;;;29.67;28.58;;;8.80;99.90;;;;;;5027432;28;20076;-75
2022/12/23 09:28:24;;;;;;;28.58;27.48;;;8.70;99.90;;;;;;5014196;28;20053;-75
2022/12/23 09:30:50;;;;;;;30.23;29.08;;;8.70;99.90;;;;;;5014989;28;20391;-75
2022/12/23 09:33:17;;;;;;;29.48;28.38;;;8.80;99.90;;;;;;5028515;28;20029;-75
2022/12/23 09:35:43;;;;;;;28.63;27.52;;;8.80;99.90;;;;;;5014009;28;20064;-75
2022/12/23 09:38:09;;;;;;;27.67;26.65;;;8.80;99.90;;;;;;5013756;28;20026;-75
2022/12/23 09:40:37;;;;;;;31.52;30.33;;;8.90;99.90;;;;;;5012657;28;20105;-75
2022/12/23 09:43:22;;;;;;;29.98;28.88;;;8.90;99.90;;;;;;5013687;28;20045;-75
2022/12/23 09:46:06;;;;;;;30.40;29.20;;;8.90;99.90;;;;;;5022288;28;20021;-75
2022/12/23 09:48:37;;;;;;;30.58;29.38;;;8.90;99.90;;;;;;5033226;28;20430;-75
2022/12/23 09:51:04;;;;;;;30.70;29.50;;;8.90;99.90;;;;;;5034387;28;20028;-78
2022/12/23 09:53:51;;;;;;;29.23;28.13;;;8.90;99.90;;;;;;5033436;28;20017;-76
2022/12/23 09:56:27;;;;;;;29.35;28.25;;;9.00;99.90;;;;;;5033547;28;20104;-76
2022/12/23 09:59:19;;;;;;;30.13;29.02;;;9.00;99.90;;;;;;5031869;28;20487;-75
2022/12/23 10:02:04;;;;;;;30.23;29.10;;;9.00;99.90;;;;;;5025136;28;20040;-76
2022/12/23 10:04:32;;;;;;;31.17;29.98;;;9.20;99.90;;;;;;5013619;28;20041;-75
2022/12/23 10:07:04;;;;;;;32.60;31.33;;;9.20;99.90;;;;;;5013254;28;20017;-75
2022/12/23 10:09:35;;;;;;;31.60;30.40;;;9.10;99.90;;;;;;5013269;28;20022;-75
2022/12/23 10:12:13;;;;;;;31.65;30.45;;;9.20;99.90;;;;;;5013444;28;20068;-75
2022/12/23 10:14:40;;;;;;;31.02;29.83;;;9.20;99.90;;;;;;5013250;28;20021;-75
2022/12/23 10:17:33;;;;;;;33.17;31.90;;;9.20;99.90;;;;;;5013065;28;20033;-76
2022/12/23 10:20:03;;;;;;;32.30;31.10;;;9.30;99.90;;;;;;5013262;28;20492;-75
2022/12/23 10:22:40;;;;;;;33.08;31.77;;;9.20;99.90;;;;;;5012968;28;20018;-74
2022/12/23 10:25:23;;;;;;;35.53;34.13;;;9.20;99.90;;;;;;5025024;28;20428;-75
2022/12/23 10:27:48;;;;;;;31.98;30.77;;;9.20;99.90;;;;;;5025058;28;20083;-75
2022/12/23 10:30:20;;;;;;;32.97;31.67;;;9.20;99.90;;;;;;5011617;28;20018;-75
2022/12/23 10:33:16;;;;;;;31.10;29.90;;;9.20;99.90;;;;;;5027503;28;20018;-75
2022/12/23 10:35:48;;;;;;;30.88;29.67;;;9.20;99.90;;;;;;5032048;28;20036;-75
2022/12/23 10:38:41;;;;;;;31.40;30.20;;;9.20;99.90;;;;;;5032496;28;20033;-75
2022/12/23 10:41:19;;;;;;;30.08;28.98;;;9.30;99.90;;;;;;5031344;28;20021;-75
2022/12/23 10:44:13;;;;;;;32.03;30.83;;;9.30;99.90;;;;;;5032961;28;20033;-75
2022/12/23 10:46:38;;;;;;;31.48;30.27;;;9.20;99.90;;;;;;5032266;28;20423;-75
2022/12/23 10:49:49;;;;;;;31.92;30.73;;;9.20;99.90;;;;;;5032195;28;20052;-75
2022/12/23 10:52:24;;;;;;;31.65;30.45;;;9.20;99.90;;;;;;4962814;28;20027;-75
2022/12/23 10:54:50;;;;;;;30.90;29.70;;;9.30;99.90;;;;;;4951903;28;20027;-75
2022/12/23 10:57:17;;;;;;;30.88;29.67;;;9.40;99.90;;;;;;4994876;28;20040;-75
2022/12/23 10:59:43;;;;;;;32.20;31.00;;;9.40;99.90;;;;;;5011175;28;20109;-74
2022/12/23 11:02:12;;;;;;;31.92;30.73;;;9.50;99.90;;;;;;5013238;28;20030;-75
2022/12/23 11:04:41;;;;;;;32.03;30.83;;;9.50;99.90;;;;;;5012354;28;20562;-75
2022/12/23 11:07:09;;;;;;;32.58;31.27;;;9.50;99.90;;;;;;5012169;28;20057;-75
2022/12/23 11:09:42;;;;;;;32.53;31.27;;;9.50;99.90;;;;;;5012283;28;20380;-75
2022/12/23 11:12:10;;;;;;;32.67;31.38;;;9.50;99.90;;;;;;5012291;28;20022;-75
2022/12/23 11:14:39;;;;;;;32.55;31.25;;;9.50;99.90;;;;;;5012444;28;20029;-75
2022/12/23 11:17:25;;;;;;;32.80;31.50;;;9.40;99.90;;;;;;5012215;28;20357;-75
2022/12/23 11:20:09;;;;;;;32.10;30.90;;;9.30;99.90;;;;;;5021416;28;20060;-75
2022/12/23 11:22:34;;;;;;;30.85;29.65;;;9.30;99.90;;;;;;5031775;28;20026;-75
2022/12/23 11:25:26;;;;;;;31.63;30.42;;;9.30;99.90;;;;;;5031166;28;20036;-74
2022/12/23 11:28:04;;;;;;;32.35;31.13;;;9.20;99.90;;;;;;5032544;28;20063;-77
2022/12/23 11:30:34;;;;;;;32.35;31.15;;;9.30;99.90;;;;;;5031909;28;20037;-75
2022/12/23 11:32:59;;;;;;;32.35;31.15;;;9.30;99.90;;;;;;5029802;28;20065;-75
2022/12/23 11:35:34;;;;;;;32.00;30.80;;;9.30;99.90;;;;;;5011922;28;20053;-75
2022/12/23 11:38:01;;;;;;;31.95;30.75;;;9.40;99.90;;;;;;5012129;28;20025;-75
2022/12/23 11:40:28;;;;;;;32.50;31.27;;;9.40;99.90;;;;;;5012464;28;20125;-76
2022/12/23 11:43:00;;;;;;;32.30;31.10;;;9.40;99.90;;;;;;5010751;28;20045;-77
2022/12/23 11:45:28;;;;;;;31.75;30.55;;;9.50;99.90;;;;;;5011097;28;20140;-75
2022/12/23 11:47:55;;;;;;;31.65;30.45;;;9.40;99.90;;;;;;5011534;28;20026;-75
2022/12/23 11:50:27;;;;;;;33.60;32.30;;;9.40;99.90;;;;;;5011701;28;20767;-75
2022/12/23 11:53:19;;;;;;;32.72;31.45;;;9.50;99.90;;;;;;5011588;28;20025;-75
2022/12/23 11:56:01;;;;;;;32.58;31.27;;;9.50;99.90;;;;;;5011317;28;20025;-75
2022/12/23 11:58:28;;;;;;;31.90;30.70;;;9.50;99.90;;;;;;5011481;28;20033;-75
2022/12/23 12:00:57;;;;;;;31.83;30.63;;;9.40;99.90;;;;;;5011746;28;20068;-75
2022/12/23 12:03:29;;;;;;;32.75;31.48;;;9.40;99.90;;;;;;5018537;28;20109;-75
2022/12/23 12:06:03;;;;;;;32.83;31.52;;;9.40;99.90;;;;;;5031229;28;20026;-76
2022/12/23 12:08:36;;;;;;;32.15;30.95;;;9.30;99.90;;;;;;5029852;28;20052;-75
2022/12/23 12:11:12;;;;;;;34.83;33.42;;;9.30;99.90;;;;;;5031234;28;20082;-74
2022/12/23 12:13:46;;;;;;;33.00;31.70;;;9.30;99.90;;;;;;5031239;28;20025;-75
2022/12/23 12:16:34;;;;;;;34.65;33.25;;;9.30;99.90;;;;;;5031254;28;20427;-75
2022/12/23 12:19:23;;;;;;;33.40;32.10;;;9.20;99.90;;;;;;5030966;28;20051;-75
2022/12/23 12:21:52;;;;;;;32.97;31.67;;;9.20;99.90;;;;;;5031136;28;20083;-75
2022/12/23 12:24:31;;;;;;;33.17;31.88;;;9.20;99.90;;;;;;5030540;28;20029;-75
2022/12/23 12:27:02;;;;;;;32.97;31.67;;;9.20;99.90;;;;;;5016944;28;20483;-74
2022/12/23 12:30:00;;;;;;;33.60;32.30;;;9.20;99.90;;;;;;5011510;28;20564;-75
2022/12/23 12:32:41;;;;;;;32.83;31.52;;;9.20;99.90;;;;;;5011147;28;20022;-75
2022/12/23 12:35:48;;;;;;;33.10;31.80;;;9.20;99.90;;;;;;5011094;28;20037;-75
2022/12/23 12:38:24;;;;;;;31.85;30.65;;;9.10;99.90;;;;;;4976384;28;20042;-75
2022/12/23 12:41:12;;;;;;;31.15;29.95;;;9.10;99.90;;;;;;5014618;28;20063;-75
2022/12/23 12:43:47;;;;;;;31.48;30.27;;;9.10;99.90;;;;;;5030573;28;20048;-75
2022/12/23 12:46:45;;;;;;;30.55;29.35;;;9.10;99.90;;;;;;5029666;28;20037;-75
2022/12/23 12:49:36;;;;;;;30.95;29.75;;;9.00;99.90;;;;;;5029526;28;20025;-75
2022/12/23 12:52:17;;;;;;;30.92;29.73;;;9.00;99.90;;;;;;5029280;28;20033;-75
2022/12/23 12:54:51;;;;;;;31.40;30.20;;;9.00;99.90;;;;;;5029659;28;20427;-75
2022/12/23 12:57:20;;;;;;;30.10;29.00;;;9.00;99.90;;;;;;5032274;28;20026;-75
2022/12/23 12:59:50;;;;;;;31.58;30.38;;;9.00;99.90;;;;;;5019780;28;20420;-74
2022/12/23 13:02:40;;;;;;;32.17;30.98;;;8.90;99.90;;;;;;5023894;28;20040;-74
2022/12/23 13:05:23;;;;;;;30.40;29.20;;;8.90;99.90;;;;;;5020708;28;20030;-74
2022/12/23 13:08:15;;;;;;;30.17;29.08;;;8.90;99.90;;;;;;5034120;28;20079;-74
2022/12/23 13:11:04;;;;;;;28.77;27.67;;;8.80;99.90;;;;;;5034105;28;20018;-74
2022/12/23 13:13:53;;;;;;;29.15;27.88;;;8.80;99.90;;;;;;5034499;28;20022;-74
2022/12/23 13:16:37;;;;;;;30.67;29.48;;;8.90;99.90;;;;;;5034169;28;20033;-74
2022/12/23 13:19:25;;;;;;;29.58;28.48;;;8.80;99.90;;;;;;5032548;28;20029;-74
2022/12/23 13:22:04;;;;;;;31.10;29.90;;;8.80;99.90;;;;;;5023284;28;20037;-74
2022/12/23 13:24:57;;;;;;;29.05;27.95;;;8.80;99.90;;;;;;5033540;28;20498;-74